Terminal Aerodrome Forecast
Issued by NWS

Home | Current Version | Previous Version | Text Only | Print | Product List | Glossary Off
Versions: 1 2 3 4 5 6 7 8 9 10 11 12 13 14 15 16 17 18 19 20 21 22 23 24 25 26 27 28 29 30 31 32

634
FTUS43 KGRB 170308 AAA
TAFRHI
TAF AMD
KRHI 170308Z 1703/1724 32008KT P6SM -SN SCT015 OVC028
      TEMPO 1703/1706 3SM -SN BKN015
     FM170600 32008KT P6SM -SHSN OVC011
     FM171400 32009KT P6SM BKN019
     FM171800 33008KT P6SM BKN028=

USA.gov is the U.S. government's official web portal to all federal, state and local government web resources and services.